Time;durP1;ratioP1;P1;durP2;ratioP2;P2;SDS_P1;SDS_P2;PMS_P1;PMS_P2;Temp;Humidity;BMP_temperature;BMP_pressure;BME280_temperature;BME280_humidity;BME280_pressure;Samples;Min_cycle;Max_cycle;Signal;HPM_P1;HPM_P2
2022/01/29 00:00:25;;;;;;;67.60;31.33;;;7.40;99.90;;;;;;5070316;28;20972;-77
2022/01/29 00:02:52;;;;;;;65.40;29.23;;;7.40;99.90;;;;;;5068331;28;20235;-76
2022/01/29 00:05:18;;;;;;;68.03;30.40;;;7.50;99.90;;;;;;5070704;28;20193;-76
2022/01/29 00:07:46;;;;;;;64.73;31.07;;;7.50;99.90;;;;;;5070916;28;20215;-77
2022/01/29 00:10:15;;;;;;;68.23;31.27;;;7.50;99.90;;;;;;5066879;28;20218;-76
2022/01/29 00:12:42;;;;;;;68.63;30.47;;;7.50;99.90;;;;;;5076854;28;20214;-76
2022/01/29 00:15:10;;;;;;;61.27;29.90;;;7.40;99.90;;;;;;5069190;28;20223;-76
2022/01/29 00:17:37;;;;;;;70.73;32.00;;;7.50;99.90;;;;;;5064606;28;20734;-78
2022/01/29 00:20:05;;;;;;;67.73;31.23;;;7.40;99.90;;;;;;5065684;28;20263;-77
2022/01/29 00:22:34;;;;;;;71.30;30.53;;;7.50;99.90;;;;;;5051146;28;20212;-77
2022/01/29 00:25:01;;;;;;;72.30;30.83;;;7.40;99.90;;;;;;5054447;28;20577;-77
2022/01/29 00:27:32;;;;;;;71.60;32.37;;;7.40;99.90;;;;;;5068729;28;20295;-77
2022/01/29 00:30:07;;;;;;;63.83;31.30;;;7.40;99.90;;;;;;5067131;28;20333;-76
2022/01/29 00:32:35;;;;;;;61.20;29.53;;;7.30;99.90;;;;;;5064929;28;20219;-75
2022/01/29 00:35:02;;;;;;;71.67;31.77;;;7.30;99.90;;;;;;5066272;28;20198;-76
2022/01/29 00:37:29;;;;;;;65.37;31.10;;;7.40;99.90;;;;;;5063409;28;20216;-76
2022/01/29 00:39:56;;;;;;;72.33;31.20;;;7.30;99.90;;;;;;5051628;28;20208;-77
2022/01/29 00:42:23;;;;;;;74.47;31.13;;;7.30;99.90;;;;;;5032898;28;20285;-77
2022/01/29 00:44:51;;;;;;;68.47;30.73;;;7.30;99.90;;;;;;5062325;28;20596;-77
2022/01/29 00:47:18;;;;;;;63.80;30.73;;;7.30;99.90;;;;;;5062336;28;20227;-77
2022/01/29 00:49:45;;;;;;;66.50;30.77;;;7.30;99.90;;;;;;5065417;28;20199;-77
2022/01/29 00:52:11;;;;;;;71.17;31.40;;;7.20;99.90;;;;;;5067383;28;20245;-77
2022/01/29 00:54:39;;;;;;;67.73;31.73;;;7.20;99.90;;;;;;5062827;28;20692;-76
2022/01/29 00:57:06;;;;;;;74.33;31.07;;;7.20;99.90;;;;;;5061675;28;20208;-77
2022/01/29 00:59:33;;;;;;;69.33;31.00;;;7.20;99.90;;;;;;5064568;28;20292;-77
2022/01/29 01:02:02;;;;;;;69.87;32.77;;;7.20;99.90;;;;;;5057843;28;20228;-78
2022/01/29 01:04:29;;;;;;;80.57;32.07;;;7.10;99.90;;;;;;5062058;28;21293;-78
2022/01/29 01:06:56;;;;;;;78.80;32.50;;;7.20;99.90;;;;;;5048502;28;20215;-76
2022/01/29 01:09:23;;;;;;;79.27;32.23;;;7.20;99.90;;;;;;5068440;28;20200;-77
2022/01/29 01:11:50;;;;;;;75.17;32.17;;;7.20;99.90;;;;;;5064519;28;20211;-77
2022/01/29 01:14:16;;;;;;;79.47;32.43;;;7.20;99.90;;;;;;5065729;28;20205;-77
2022/01/29 01:16:43;;;;;;;76.63;33.07;;;7.20;99.90;;;;;;5058900;28;20787;-77
2022/01/29 01:19:10;;;;;;;82.00;35.00;;;7.20;99.90;;;;;;5062183;28;20287;-77
2022/01/29 01:21:37;;;;;;;83.10;32.53;;;7.20;99.90;;;;;;5064048;28;20235;-77
2022/01/29 01:24:04;;;;;;;73.77;31.80;;;7.20;99.90;;;;;;5046176;28;20220;-77
2022/01/29 01:26:31;;;;;;;79.03;31.73;;;7.20;99.90;;;;;;5063086;28;20323;-78
2022/01/29 01:28:58;;;;;;;81.67;34.87;;;7.20;99.90;;;;;;5047546;28;20228;-77
2022/01/29 01:31:25;;;;;;;72.23;31.47;;;7.20;99.90;;;;;;5067948;28;20196;-77
2022/01/29 01:33:52;;;;;;;76.37;30.93;;;7.20;99.90;;;;;;5068092;28;20238;-77
2022/01/29 01:36:23;;;;;;;72.40;32.50;;;7.20;99.90;;;;;;5069705;28;20854;-77
2022/01/29 01:38:54;;;;;;;71.00;29.90;;;7.20;99.90;;;;;;5068639;28;20215;-77
2022/01/29 01:41:25;;;;;;;78.80;32.00;;;7.20;99.90;;;;;;5067528;28;20601;-77
2022/01/29 01:44:00;;;;;;;75.27;31.60;;;7.20;99.90;;;;;;5057681;28;20211;-77
2022/01/29 01:46:28;;;;;;;72.87;31.20;;;7.10;99.90;;;;;;5063726;28;20236;-77
2022/01/29 01:48:58;;;;;;;71.60;30.83;;;7.20;99.90;;;;;;5060706;28;20250;-76
2022/01/29 01:51:26;;;;;;;72.17;30.70;;;7.20;99.90;;;;;;5069918;28;20238;-76
2022/01/29 01:53:53;;;;;;;76.03;30.30;;;7.20;99.90;;;;;;5074142;28;20211;-77
2022/01/29 01:56:20;;;;;;;76.47;30.00;;;7.10;99.90;;;;;;5065018;28;20666;-78
2022/01/29 01:58:46;;;;;;;79.87;31.23;;;7.20;99.90;;;;;;5068584;28;20239;-78
2022/01/29 02:01:14;;;;;;;78.07;30.70;;;7.20;99.90;;;;;;5067497;28;20239;-78
2022/01/29 02:03:42;;;;;;;66.10;28.80;;;7.20;99.90;;;;;;5062185;28;20231;-78
2022/01/29 02:06:09;;;;;;;76.33;30.37;;;7.20;99.90;;;;;;5051227;28;20211;-77
2022/01/29 02:08:36;;;;;;;74.33;31.27;;;7.30;99.90;;;;;;5065769;28;20204;-77
2022/01/29 02:11:06;;;;;;;80.93;30.80;;;7.30;99.90;;;;;;5065179;28;20207;-78
2022/01/29 02:13:33;;;;;;;70.20;29.87;;;7.30;99.90;;;;;;5065948;28;20214;-78
2022/01/29 02:16:02;;;;;;;68.90;28.27;;;7.40;99.90;;;;;;5064696;28;20193;-77
2022/01/29 02:18:29;;;;;;;71.47;31.17;;;7.40;99.90;;;;;;5066388;28;20256;-77
2022/01/29 02:20:57;;;;;;;65.00;28.23;;;7.40;99.90;;;;;;5062526;28;20233;-76
2022/01/29 02:23:24;;;;;;;57.00;25.90;;;7.40;99.90;;;;;;5067901;28;20295;-77
2022/01/29 02:25:51;;;;;;;60.60;26.53;;;7.40;99.90;;;;;;5057720;28;20311;-78
2022/01/29 02:28:20;;;;;;;62.53;26.80;;;7.40;99.90;;;;;;5063209;28;20209;-75
2022/01/29 02:30:49;;;;;;;61.57;25.37;;;7.40;99.90;;;;;;5065272;28;20214;-77
2022/01/29 02:33:17;;;;;;;55.33;24.43;;;7.40;99.90;;;;;;5062806;28;20251;-77
2022/01/29 02:35:47;;;;;;;57.93;26.03;;;7.40;99.90;;;;;;5046727;28;20310;-76
2022/01/29 02:38:16;;;;;;;55.03;25.57;;;7.40;99.90;;;;;;5061927;28;20272;-77
2022/01/29 02:40:52;;;;;;;50.70;23.33;;;7.40;99.90;;;;;;5049248;28;20212;-77
2022/01/29 02:43:30;;;;;;;47.33;21.77;;;7.50;99.90;;;;;;5064305;28;20659;-77
2022/01/29 02:46:05;;;;;;;49.97;23.57;;;7.40;99.90;;;;;;5058580;28;20210;-76
2022/01/29 02:48:34;;;;;;;52.17;21.63;;;7.50;99.90;;;;;;5057609;28;20215;-76
2022/01/29 02:51:01;;;;;;;50.63;23.37;;;7.50;99.90;;;;;;5061762;28;20232;-76
2022/01/29 02:53:29;;;;;;;47.93;22.80;;;7.50;99.90;;;;;;5065536;28;20223;-76
2022/01/29 02:55:56;;;;;;;50.87;22.70;;;7.40;99.90;;;;;;5066090;28;20685;-76
2022/01/29 02:58:23;;;;;;;51.50;22.83;;;7.40;99.90;;;;;;5062480;28;20203;-77
2022/01/29 03:00:50;;;;;;;48.57;21.67;;;7.50;99.90;;;;;;5065121;28;20213;-76
2022/01/29 03:03:17;;;;;;;50.13;21.73;;;7.50;99.90;;;;;;5062598;28;20274;-77
2022/01/29 03:05:44;;;;;;;51.27;22.43;;;7.50;99.90;;;;;;5059494;28;20202;-77
2022/01/29 03:08:11;;;;;;;57.60;21.90;;;7.50;99.90;;;;;;5065738;28;20668;-78
2022/01/29 03:10:39;;;;;;;46.50;21.33;;;7.50;99.90;;;;;;5059358;28;20689;-77
2022/01/29 03:13:06;;;;;;;47.13;20.97;;;7.50;99.90;;;;;;5062423;28;20216;-76
2022/01/29 03:15:32;;;;;;;45.60;20.57;;;7.60;99.90;;;;;;5061208;28;20210;-76
2022/01/29 03:17:59;;;;;;;45.10;20.37;;;7.50;99.90;;;;;;5062025;28;20239;-77
2022/01/29 03:20:26;;;;;;;44.57;20.10;;;7.60;99.90;;;;;;5064426;28;20212;-77
2022/01/29 03:22:53;;;;;;;42.17;20.77;;;7.60;99.90;;;;;;5066956;28;20230;-76
2022/01/29 03:25:20;;;;;;;41.70;20.63;;;7.60;99.90;;;;;;5060352;28;20695;-77
2022/01/29 03:27:47;;;;;;;44.27;20.10;;;7.60;99.90;;;;;;5066519;28;20581;-77
2022/01/29 03:30:14;;;;;;;45.47;20.10;;;7.60;99.90;;;;;;5053038;28;20215;-77
2022/01/29 03:32:41;;;;;;;42.80;19.00;;;7.60;99.90;;;;;;5052753;28;20216;-77
2022/01/29 03:35:11;;;;;;;39.73;19.17;;;7.70;99.90;;;;;;5067925;28;20217;-77
2022/01/29 03:37:38;;;;;;;42.77;19.60;;;7.70;99.90;;;;;;5061859;28;20267;-77
2022/01/29 03:40:08;;;;;;;42.20;18.07;;;7.70;99.90;;;;;;5064746;28;20684;-77
2022/01/29 03:42:43;;;;;;;42.37;18.93;;;7.70;99.90;;;;;;5060192;28;20603;-77
2022/01/29 03:45:10;;;;;;;45.40;19.73;;;7.70;99.90;;;;;;5056034;28;20204;-77
2022/01/29 03:47:37;;;;;;;44.93;19.00;;;7.80;99.90;;;;;;5060871;28;20231;-77
2022/01/29 03:50:04;;;;;;;37.50;17.63;;;7.80;99.90;;;;;;5036135;28;20736;-77
2022/01/29 03:52:32;;;;;;;38.10;17.90;;;7.80;99.90;;;;;;5044353;28;20853;-77
2022/01/29 03:54:59;;;;;;;38.67;18.43;;;7.70;99.90;;;;;;5044522;28;20204;-76
2022/01/29 03:57:25;;;;;;;37.43;17.73;;;7.70;99.90;;;;;;5038567;28;20223;-76
2022/01/29 03:59:52;;;;;;;43.17;18.53;;;7.70;99.90;;;;;;5037282;28;20213;-77
2022/01/29 04:02:23;;;;;;;37.60;18.77;;;7.70;99.90;;;;;;5035594;28;20678;-77
2022/01/29 04:04:50;;;;;;;42.57;19.03;;;7.70;99.90;;;;;;5036253;28;20858;-76
2022/01/29 04:07:17;;;;;;;42.43;18.93;;;7.70;99.90;;;;;;5042709;28;20211;-77
2022/01/29 04:09:49;;;;;;;42.23;20.97;;;7.80;99.90;;;;;;5044263;28;20202;-77
2022/01/29 04:12:17;;;;;;;46.10;19.70;;;7.80;99.90;;;;;;5048885;28;20328;-78
2022/01/29 04:14:44;;;;;;;46.30;20.23;;;7.80;99.90;;;;;;5043263;28;20358;-77
2022/01/29 04:17:12;;;;;;;42.93;19.93;;;7.80;99.90;;;;;;5048478;28;20230;-77
2022/01/29 04:19:39;;;;;;;45.67;20.23;;;7.80;99.90;;;;;;5057569;28;20382;-77
2022/01/29 04:22:07;;;;;;;48.50;21.23;;;7.80;99.90;;;;;;5052115;28;20221;-77
2022/01/29 04:24:34;;;;;;;45.63;21.90;;;7.90;99.90;;;;;;5048387;28;20202;-77
2022/01/29 04:27:03;;;;;;;49.43;20.67;;;7.90;99.90;;;;;;5049533;28;20220;-77
2022/01/29 04:29:40;;;;;;;50.70;22.83;;;7.90;99.90;;;;;;5043522;28;20240;-77
2022/01/29 04:32:12;;;;;;;53.77;22.33;;;7.90;99.90;;;;;;5043430;28;20209;-77
2022/01/29 04:34:39;;;;;;;53.53;22.33;;;8.00;99.90;;;;;;5044232;28;20576;-77
2022/01/29 04:37:06;;;;;;;51.87;22.97;;;8.00;99.90;;;;;;5049909;28;20299;-77
2022/01/29 04:39:33;;;;;;;57.00;24.40;;;8.00;99.90;;;;;;5044773;28;20919;-77
2022/01/29 04:42:00;;;;;;;54.60;24.37;;;7.90;99.90;;;;;;5045359;28;20255;-77
2022/01/29 04:44:26;;;;;;;57.90;23.77;;;8.00;99.90;;;;;;5035576;28;20283;-75
2022/01/29 04:46:53;;;;;;;59.33;23.73;;;8.00;99.90;;;;;;5043270;28;20216;-77
2022/01/29 04:49:20;;;;;;;58.37;24.70;;;8.10;99.90;;;;;;5045064;28;20210;-76
2022/01/29 04:51:47;;;;;;;56.70;23.63;;;8.00;99.90;;;;;;5062760;28;20236;-76
2022/01/29 04:54:13;;;;;;;64.53;25.07;;;8.10;99.90;;;;;;5068128;28;20665;-77
2022/01/29 04:56:40;;;;;;;59.87;24.07;;;8.10;99.90;;;;;;5063672;28;20296;-79
2022/01/29 04:59:07;;;;;;;62.97;25.33;;;8.10;99.90;;;;;;5066963;28;20208;-76
2022/01/29 05:01:34;;;;;;;57.83;25.43;;;8.10;99.90;;;;;;5066219;28;20240;-76
2022/01/29 05:04:01;;;;;;;65.07;24.40;;;8.10;99.90;;;;;;5064002;28;20210;-78
2022/01/29 05:06:28;;;;;;;65.20;27.03;;;8.20;99.90;;;;;;5068647;28;20978;-76
2022/01/29 05:08:55;;;;;;;62.27;25.10;;;8.20;99.90;;;;;;5065937;28;20248;-76
2022/01/29 05:11:21;;;;;;;56.03;24.33;;;8.20;99.90;;;;;;5065039;28;20283;-77
2022/01/29 05:13:48;;;;;;;63.77;24.87;;;8.20;99.90;;;;;;5060575;28;21023;-76
2022/01/29 05:27:09;;;;;;;64.03;23.73;;;8.30;99.90;;;;;;5062878;28;20206;-77
2022/01/29 05:29:37;;;;;;;58.83;25.27;;;8.30;99.90;;;;;;5061033;28;20304;-78
2022/01/29 05:32:07;;;;;;;66.93;26.30;;;8.30;99.90;;;;;;5062618;28;20829;-77
2022/01/29 05:34:35;;;;;;;67.00;25.70;;;8.30;99.90;;;;;;5062810;28;20230;-77
2022/01/29 05:37:02;;;;;;;65.30;24.87;;;8.30;99.90;;;;;;5044294;28;20218;-77
2022/01/29 05:39:31;;;;;;;64.57;23.47;;;8.30;99.90;;;;;;5067816;28;20210;-77
2022/01/29 05:41:59;;;;;;;69.83;25.47;;;8.40;99.90;;;;;;5050321;28;20296;-77
2022/01/29 05:44:26;;;;;;;68.17;25.33;;;8.40;99.90;;;;;;5059398;28;20692;-76
2022/01/29 05:46:53;;;;;;;65.47;26.00;;;8.40;99.90;;;;;;5064445;28;20222;-77
2022/01/29 05:49:20;;;;;;;63.13;25.17;;;8.40;99.90;;;;;;5065679;28;20328;-78
2022/01/29 05:51:48;;;;;;;64.70;26.07;;;8.40;99.90;;;;;;5044721;28;20245;-77
2022/01/29 05:54:17;;;;;;;63.60;25.43;;;8.40;99.90;;;;;;5052793;28;20321;-78
2022/01/29 05:56:45;;;;;;;58.20;24.97;;;8.50;99.90;;;;;;5064922;28;20684;-78
2022/01/29 05:59:12;;;;;;;63.93;25.07;;;8.60;99.90;;;;;;5062701;28;20221;-77
2022/01/29 06:01:39;;;;;;;63.23;25.13;;;8.40;99.90;;;;;;5062174;28;20235;-77
2022/01/29 06:04:06;;;;;;;67.73;27.33;;;8.40;99.90;;;;;;5065411;28;20219;-76
2022/01/29 06:06:33;;;;;;;58.13;26.17;;;8.40;99.90;;;;;;5062676;28;20294;-77
2022/01/29 06:09:04;;;;;;;63.07;25.80;;;8.50;99.90;;;;;;5065542;28;20212;-77
2022/01/29 06:11:32;;;;;;;67.23;26.23;;;8.40;99.90;;;;;;5059167;28;20233;-77
2022/01/29 06:13:59;;;;;;;61.23;26.73;;;8.50;99.90;;;;;;5060931;28;20212;-77
2022/01/29 06:16:26;;;;;;;65.67;25.83;;;8.50;99.90;;;;;;5049428;28;20566;-77
2022/01/29 06:18:53;;;;;;;62.07;25.27;;;8.50;99.90;;;;;;5059088;28;20282;-77
2022/01/29 06:21:20;;;;;;;52.43;23.07;;;8.50;99.90;;;;;;5060865;28;20461;-77
2022/01/29 06:23:46;;;;;;;52.43;23.43;;;8.60;99.90;;;;;;5062034;28;20595;-77
2022/01/29 06:26:14;;;;;;;51.73;23.07;;;;;;;;;;5057631;28;20206;-78
2022/01/29 06:28:40;;;;;;;49.90;23.80;;;8.60;99.90;;;;;;5039636;28;20640;-77
2022/01/29 06:31:09;;;;;;;48.03;22.77;;;8.70;99.90;;;;;;5037703;28;20298;-77
2022/01/29 06:33:36;;;;;;;53.03;25.63;;;8.70;99.90;;;;;;5060061;28;20593;-78
2022/01/29 06:36:03;;;;;;;52.87;24.00;;;8.70;99.90;;;;;;5064248;28;20288;-77
2022/01/29 06:38:30;;;;;;;60.43;23.67;;;8.70;99.90;;;;;;5060260;28;20649;-75
2022/01/29 06:40:57;;;;;;;49.67;23.63;;;8.70;99.90;;;;;;5062419;28;20215;-78
2022/01/29 06:43:24;;;;;;;43.93;22.87;;;8.70;99.90;;;;;;5053928;28;20229;-78
2022/01/29 06:45:51;;;;;;;47.20;23.73;;;8.70;99.90;;;;;;5059163;28;20203;-77
2022/01/29 06:48:17;;;;;;;51.30;22.37;;;8.70;99.90;;;;;;5054953;28;20659;-77
2022/01/29 06:50:44;;;;;;;45.43;20.87;;;8.70;99.90;;;;;;5055290;28;20296;-77
2022/01/29 06:53:11;;;;;;;45.73;21.17;;;8.70;99.90;;;;;;5061202;28;20216;-77
2022/01/29 06:55:39;;;;;;;48.93;21.63;;;8.70;99.90;;;;;;5060294;28;20202;-77
2022/01/29 06:58:06;;;;;;;47.77;21.67;;;8.70;99.90;;;;;;5058998;28;20216;-77
2022/01/29 07:00:52;;;;;;;43.90;20.97;;;8.70;99.90;;;;;;5056917;28;20661;-77
2022/01/29 07:03:19;;;;;;;42.30;19.93;;;8.70;99.90;;;;;;5047107;28;20321;-77
2022/01/29 07:05:48;;;;;;;47.57;19.97;;;8.70;99.90;;;;;;5064665;28;20209;-78
2022/01/29 07:08:15;;;;;;;40.13;20.03;;;8.70;99.90;;;;;;5046877;28;20208;-78
2022/01/29 07:10:44;;;;;;;38.77;18.87;;;8.70;99.90;;;;;;5062274;28;20213;-77
2022/01/29 07:13:10;;;;;;;43.00;20.83;;;8.70;99.90;;;;;;5065087;28;20210;-77
2022/01/29 07:15:38;;;;;;;43.87;20.10;;;8.70;99.90;;;;;;5058987;28;20220;-77
2022/01/29 07:18:05;;;;;;;44.67;19.77;;;8.70;99.90;;;;;;5044574;28;20215;-77
2022/01/29 07:20:32;;;;;;;45.27;20.33;;;8.70;99.90;;;;;;5041469;28;20207;-78
2022/01/29 07:22:59;;;;;;;42.77;21.37;;;8.70;99.90;;;;;;5063092;28;20239;-78
2022/01/29 07:25:25;;;;;;;41.90;20.53;;;8.70;99.90;;;;;;5063568;28;20295;-77
2022/01/29 07:27:53;;;;;;;44.63;21.40;;;8.70;99.90;;;;;;5063530;28;20681;-78
2022/01/29 07:30:19;;;;;;;46.07;20.10;;;8.80;99.90;;;;;;5064217;28;20316;-77
2022/01/29 07:32:46;;;;;;;42.30;21.30;;;8.80;99.90;;;;;;5058068;28;20721;-78
2022/01/29 07:35:13;;;;;;;41.63;21.17;;;8.80;99.90;;;;;;5065443;28;20249;-77
2022/01/29 07:37:40;;;;;;;43.67;20.30;;;8.80;99.90;;;;;;5064174;28;20197;-78
2022/01/29 07:40:07;;;;;;;36.87;19.30;;;8.80;99.90;;;;;;5066407;28;20212;-78
2022/01/29 07:42:35;;;;;;;43.83;19.73;;;8.80;99.90;;;;;;5044982;28;20619;-78
2022/01/29 07:45:02;;;;;;;40.93;20.90;;;8.90;99.90;;;;;;5063442;28;20199;-77
2022/01/29 07:47:29;;;;;;;38.13;20.47;;;8.90;99.90;;;;;;5061037;28;20315;-83
2022/01/29 07:49:56;;;;;;;41.70;21.17;;;9.00;99.90;;;;;;5066017;28;20221;-78
2022/01/29 07:52:22;;;;;;;39.37;18.97;;;8.90;99.90;;;;;;5063338;28;20208;-78
2022/01/29 07:54:49;;;;;;;39.83;20.07;;;9.00;99.90;;;;;;5065441;28;20206;-78
2022/01/29 07:57:16;;;;;;;43.80;20.33;;;9.00;99.90;;;;;;5062713;28;20515;-78
2022/01/29 07:59:43;;;;;;;38.00;20.67;;;9.00;99.90;;;;;;5065651;28;20212;-78
2022/01/29 08:02:10;;;;;;;40.03;19.63;;;9.10;99.90;;;;;;5062949;28;20217;-78
2022/01/29 08:04:38;;;;;;;38.97;19.60;;;9.10;99.90;;;;;;5047514;28;20627;-78
2022/01/29 08:07:04;;;;;;;41.37;20.53;;;9.10;99.90;;;;;;5060730;28;20231;-78
2022/01/29 08:09:31;;;;;;;40.20;19.90;;;9.10;99.90;;;;;;5068776;28;20216;-77
2022/01/29 08:11:58;;;;;;;46.90;20.33;;;9.20;99.90;;;;;;5065360;28;20212;-78
2022/01/29 08:14:24;;;;;;;40.80;19.93;;;9.20;99.90;;;;;;5065517;28;20222;-77
2022/01/29 08:16:51;;;;;;;39.17;20.90;;;9.20;99.90;;;;;;5067167;28;20223;-78
2022/01/29 08:19:18;;;;;;;38.93;20.47;;;9.20;99.90;;;;;;5060132;28;20215;-79
2022/01/29 08:21:45;;;;;;;41.10;21.47;;;9.20;99.90;;;;;;5060182;28;20235;-78
2022/01/29 08:24:11;;;;;;;34.87;18.40;;;9.30;99.90;;;;;;5062657;28;20236;-79
2022/01/29 08:26:38;;;;;;;40.00;20.53;;;9.30;99.90;;;;;;5057141;28;20199;-78
2022/01/29 08:29:05;;;;;;;36.03;19.97;;;9.30;99.90;;;;;;5059567;28;20220;-79
2022/01/29 08:31:32;;;;;;;41.43;20.60;;;9.30;99.90;;;;;;5062650;28;20211;-78
2022/01/29 08:34:01;;;;;;;41.03;20.50;;;9.30;99.90;;;;;;5064563;28;20566;-78
2022/01/29 08:36:28;;;;;;;36.67;19.83;;;9.30;99.90;;;;;;5065565;28;20203;-78
2022/01/29 08:38:54;;;;;;;37.70;20.03;;;9.40;99.90;;;;;;5035780;28;20204;-77
2022/01/29 08:41:21;;;;;;;34.27;20.33;;;9.40;99.90;;;;;;5045885;28;20206;-78
2022/01/29 08:43:48;;;;;;;36.00;20.30;;;9.40;99.90;;;;;;5062334;28;20313;-77
2022/01/29 08:46:15;;;;;;;40.53;19.33;;;9.40;99.90;;;;;;5064790;28;20211;-78
2022/01/29 08:48:41;;;;;;;43.27;20.17;;;9.40;99.90;;;;;;5059474;28;20707;-77
2022/01/29 08:51:08;;;;;;;35.57;19.47;;;9.50;99.90;;;;;;5060471;28;20227;-78
2022/01/29 08:53:35;;;;;;;32.53;18.03;;;9.50;99.90;;;;;;5040261;28;20218;-78
2022/01/29 08:56:03;;;;;;;36.07;18.93;;;9.50;99.90;;;;;;5061483;28;20556;-78
2022/01/29 08:58:30;;;;;;;33.80;17.73;;;9.50;99.90;;;;;;5059024;28;20337;-78
2022/01/29 09:00:57;;;;;;;34.07;17.37;;;9.50;99.90;;;;;;5064466;28;20319;-78
2022/01/29 09:03:24;;;;;;;33.37;17.30;;;9.60;99.90;;;;;;5060064;28;20231;-77
2022/01/29 09:05:51;;;;;;;31.87;17.27;;;9.60;99.90;;;;;;5062426;28;20204;-78
2022/01/29 09:08:18;;;;;;;30.90;17.00;;;9.60;99.90;;;;;;5060132;28;20299;-78
2022/01/29 09:10:46;;;;;;;30.37;16.00;;;9.60;99.90;;;;;;5070128;28;20243;-78
2022/01/29 09:13:14;;;;;;;28.43;15.70;;;9.70;99.90;;;;;;5061129;28;20211;-77
2022/01/29 09:15:41;;;;;;;28.60;16.87;;;9.60;99.90;;;;;;5060587;28;20197;-78
2022/01/29 09:18:08;;;;;;;30.60;17.33;;;9.60;99.90;;;;;;5061598;28;20745;-78
2022/01/29 09:20:35;;;;;;;39.17;17.50;;;9.60;99.90;;;;;;5062284;28;20717;-78
2022/01/29 09:23:02;;;;;;;32.13;16.30;;;9.70;99.90;;;;;;5060729;28;20330;-78
2022/01/29 09:25:29;;;;;;;29.90;15.53;;;9.70;99.90;;;;;;5062146;28;20275;-77
2022/01/29 09:27:56;;;;;;;37.50;17.03;;;9.70;99.90;;;;;;5057527;28;20207;-78
2022/01/29 09:30:23;;;;;;;31.03;16.93;;;9.70;99.90;;;;;;5061165;28;20218;-78
2022/01/29 09:32:49;;;;;;;34.33;15.67;;;9.70;99.90;;;;;;5059043;28;20608;-78
2022/01/29 09:35:17;;;;;;;32.80;15.50;;;9.70;99.90;;;;;;5066002;28;20904;-78
2022/01/29 09:37:44;;;;;;;31.57;15.67;;;9.80;99.90;;;;;;5062405;28;20426;-79
2022/01/29 09:40:11;;;;;;;27.63;15.37;;;9.80;99.90;;;;;;5064224;28;20760;-78
2022/01/29 09:42:39;;;;;;;29.10;15.80;;;9.80;99.90;;;;;;5061337;28;20210;-77
2022/01/29 09:45:11;;;;;;;33.57;15.23;;;9.80;99.90;;;;;;5062979;28;20204;-77
2022/01/29 09:47:39;;;;;;;33.00;16.00;;;9.90;99.90;;;;;;5063127;28;20227;-78
2022/01/29 09:50:06;;;;;;;27.63;16.20;;;9.90;99.90;;;;;;5060724;28;20230;-84
2022/01/29 09:52:33;;;;;;;31.03;15.10;;;10.00;99.90;;;;;;5042181;28;20200;-78
2022/01/29 09:55:00;;;;;;;29.03;14.77;;;10.00;99.90;;;;;;5064897;28;20244;-78
2022/01/29 09:57:29;;;;;;;25.27;14.03;;;10.10;99.90;;;;;;5064932;28;20200;-78
2022/01/29 09:59:56;;;;;;;28.17;15.10;;;10.00;99.90;;;;;;5046421;28;20247;-79
2022/01/29 10:02:23;;;;;;;23.73;14.40;;;10.10;99.90;;;;;;5065061;28;20223;-78
2022/01/29 10:04:55;;;;;;;19.87;13.33;;;10.10;99.90;;;;;;5061074;28;20328;-77
2022/01/29 10:07:27;;;;;;;26.23;14.10;;;10.10;99.90;;;;;;5061665;28;20554;-79
2022/01/29 10:09:55;;;;;;;24.23;13.47;;;10.10;99.90;;;;;;5055830;28;20743;-79
2022/01/29 10:12:27;;;;;;;26.53;13.47;;;10.20;99.90;;;;;;5062949;28;20211;-78
2022/01/29 10:15:06;;;;;;;24.13;13.53;;;10.20;99.90;;;;;;5053786;28;20250;-79
2022/01/29 10:17:50;;;;;;;18.47;12.27;;;10.30;99.90;;;;;;5055821;28;20303;-78
2022/01/29 10:20:25;;;;;;;24.83;12.47;;;10.30;99.90;;;;;;5059398;28;20262;-78
2022/01/29 10:22:53;;;;;;;19.83;12.67;;;10.20;99.90;;;;;;5058691;28;20216;-78
2022/01/29 10:25:33;;;;;;;20.63;11.10;;;10.30;99.90;;;;;;5060854;28;20208;-78
2022/01/29 10:28:07;;;;;;;17.67;11.73;;;10.30;99.90;;;;;;5044948;28;20204;-78
2022/01/29 10:30:37;;;;;;;21.10;11.30;;;10.30;99.90;;;;;;5058260;28;20411;-78
2022/01/29 10:33:28;;;;;;;21.33;10.80;;;10.40;99.90;;;;;;5038859;28;20304;-79
2022/01/29 10:36:04;;;;;;;16.07;9.83;;;10.40;99.90;;;;;;5061178;28;20243;-78
2022/01/29 10:38:39;;;;;;;15.67;9.53;;;10.30;99.90;;;;;;5047702;28;20728;-77
2022/01/29 10:41:30;;;;;;;17.33;9.90;;;10.40;99.90;;;;;;5057443;28;20595;-77
2022/01/29 10:44:02;;;;;;;14.50;8.93;;;10.50;99.90;;;;;;5059136;28;20235;-78
2022/01/29 10:46:35;;;;;;;13.53;8.13;;;10.40;99.90;;;;;;5053387;28;20202;-77
2022/01/29 10:49:03;;;;;;;14.33;8.40;;;10.50;99.90;;;;;;5061318;28;20252;-78
2022/01/29 10:51:31;;;;;;;15.07;8.53;;;10.50;99.90;;;;;;5067384;28;20310;-76
2022/01/29 10:54:18;;;;;;;15.07;8.40;;;10.60;99.90;;;;;;5065115;28;20208;-78
2022/01/29 10:56:50;;;;;;;15.30;8.13;;;10.50;99.90;;;;;;5066615;28;20288;-78
2022/01/29 10:59:17;;;;;;;19.57;9.47;;;10.50;99.90;;;;;;5043737;28;20205;-78
2022/01/29 11:02:02;;;;;;;12.00;7.53;;;10.60;99.90;;;;;;5060091;28;20221;-78
2022/01/29 11:04:31;;;;;;;12.33;8.37;;;10.60;99.90;;;;;;5065829;28;20710;-78
2022/01/29 11:07:02;;;;;;;11.50;7.77;;;10.70;99.90;;;;;;5061847;28;20273;-78
2022/01/29 11:09:30;;;;;;;12.70;6.83;;;10.70;99.90;;;;;;5064466;28;20213;-77
2022/01/29 11:11:59;;;;;;;11.03;6.50;;;10.70;99.90;;;;;;5051625;28;20295;-78
2022/01/29 11:14:28;;;;;;;7.07;5.30;;;10.70;99.90;;;;;;5058915;28;20219;-78
2022/01/29 11:16:55;;;;;;;9.23;6.50;;;10.80;99.90;;;;;;5056347;28;20227;-78
2022/01/29 11:19:22;;;;;;;8.77;5.47;;;10.90;99.90;;;;;;5046993;28;20197;-79
2022/01/29 11:21:52;;;;;;;11.77;5.57;;;10.90;99.90;;;;;;5034774;28;20224;-79
2022/01/29 11:24:22;;;;;;;12.93;5.43;;;11.00;99.90;;;;;;5069591;28;20271;-78
2022/01/29 11:26:50;;;;;;;12.13;5.00;;;11.00;99.90;;;;;;5064028;28;20572;-77
2022/01/29 11:29:33;;;;;;;8.77;4.13;;;11.10;99.90;;;;;;5047547;28;20239;-79
2022/01/29 11:32:22;;;;;;;7.80;4.83;;;11.10;99.90;;;;;;5065955;28;20676;-78
2022/01/29 11:35:16;;;;;;;10.43;4.20;;;11.20;99.90;;;;;;5065664;28;20244;-78
2022/01/29 11:38:03;;;;;;;8.50;3.87;;;11.20;99.90;;;;;;5066615;28;20240;-78
2022/01/29 11:40:38;;;;;;;11.23;4.33;;;11.20;99.90;;;;;;5062908;28;20276;-78
2022/01/29 11:43:17;;;;;;;7.83;3.73;;;11.20;99.90;;;;;;5065257;28;20291;-77
2022/01/29 11:45:52;;;;;;;7.90;3.43;;;11.20;99.90;;;;;;5048075;28;20239;-79
2022/01/29 11:48:25;;;;;;;11.47;3.87;;;11.20;99.90;;;;;;5065830;28;20266;-77
2022/01/29 11:50:54;;;;;;;4.90;3.00;;;11.20;99.90;;;;;;5061598;28;20294;-77
2022/01/29 11:53:22;;;;;;;10.73;3.03;;;11.20;99.90;;;;;;5067886;28;20262;-78
2022/01/29 11:55:54;;;;;;;5.30;2.90;;;11.20;99.90;;;;;;5045636;28;20236;-79
2022/01/29 11:58:21;;;;;;;4.80;2.63;;;11.30;99.90;;;;;;5062487;28;20304;-78
2022/01/29 12:00:59;;;;;;;7.43;2.57;;;11.30;99.90;;;;;;5060770;28;20228;-78
2022/01/29 12:03:35;;;;;;;9.80;3.70;;;11.40;99.90;;;;;;5067776;28;20263;-79
2022/01/29 12:06:14;;;;;;;4.60;2.37;;;11.40;99.90;;;;;;5066923;28;20236;-78
2022/01/29 12:11:29;;;;;;;4.40;2.00;;;11.50;99.90;;;;;;5062693;28;20240;-79
2022/01/29 12:14:14;;;;;;;7.53;2.60;;;11.60;99.90;;;;;;5057369;28;20209;-79
2022/01/29 12:16:59;;;;;;;3.93;2.13;;;11.60;99.90;;;;;;5058972;28;20262;-79
2022/01/29 12:19:42;;;;;;;6.57;2.80;;;11.60;99.90;;;;;;5066685;28;20204;-78
2022/01/29 12:22:20;;;;;;;6.43;2.17;;;11.70;99.90;;;;;;5046546;28;20221;-78
2022/01/29 12:24:56;;;;;;;3.30;2.10;;;11.70;99.90;;;;;;5047688;28;20726;-78
2022/01/29 12:27:23;;;;;;;14.80;2.47;;;11.70;99.90;;;;;;5063473;28;20208;-79
2022/01/29 12:29:51;;;;;;;5.50;2.33;;;11.80;99.90;;;;;;5061390;28;20282;-78
2022/01/29 12:32:18;;;;;;;4.93;2.00;;;11.80;99.90;;;;;;5048322;28;20315;-78
2022/01/29 12:34:54;;;;;;;4.67;1.97;;;11.80;99.90;;;;;;5064560;28;20211;-78
2022/01/29 12:37:21;;;;;;;3.63;1.80;;;11.90;99.90;;;;;;5063465;28;20200;-78
2022/01/29 12:40:02;;;;;;;7.00;1.90;;;12.00;99.90;;;;;;5066351;28;20233;-78
2022/01/29 12:42:45;;;;;;;3.47;2.20;;;12.00;99.90;;;;;;5062387;28;20204;-78
2022/01/29 12:45:12;;;;;;;5.30;2.10;;;12.10;99.90;;;;;;5066428;28;20223;-78
2022/01/29 12:47:39;;;;;;;8.30;2.40;;;12.20;99.90;;;;;;5065684;28;20262;-78
2022/01/29 12:50:06;;;;;;;4.77;2.30;;;12.20;99.90;;;;;;5065526;28;20232;-78
2022/01/29 12:52:33;;;;;;;3.93;1.73;;;12.30;99.90;;;;;;5062740;28;20304;-79
2022/01/29 12:55:04;;;;;;;3.50;2.20;;;12.20;99.90;;;;;;5061352;28;20197;-79
2022/01/29 12:57:49;;;;;;;3.33;2.07;;;12.20;99.90;;;;;;5064169;28;20220;-78
2022/01/29 13:00:19;;;;;;;6.23;2.00;;;12.20;99.90;;;;;;5062752;28;20201;-79